createdAt,value
2022-08-02T00:00:34.046Z,20.87
2022-08-02T00:03:00.521Z,20.83
2022-08-02T00:05:27.110Z,20.79
2022-08-02T00:07:53.650Z,20.80
2022-08-02T00:10:20.154Z,20.77
2022-08-02T00:12:46.624Z,20.79
2022-08-02T00:15:16.072Z,20.80
2022-08-02T00:17:44.172Z,20.76
2022-08-02T00:20:11.840Z,20.75
2022-08-02T00:22:38.637Z,20.67
2022-08-02T00:25:05.652Z,20.66
2022-08-02T00:27:32.391Z,20.58
2022-08-02T00:29:58.908Z,20.60
2022-08-02T00:32:25.461Z,20.57
2022-08-02T00:34:52.201Z,20.56
2022-08-02T00:37:18.859Z,20.47
2022-08-02T00:39:45.390Z,20.45
2022-08-02T00:42:15.254Z,20.39
2022-08-02T00:44:42.332Z,20.41
2022-08-02T00:47:09.271Z,20.29
2022-08-02T00:49:35.841Z,20.26
2022-08-02T00:52:02.752Z,20.27
2022-08-02T00:54:30.270Z,20.24
2022-08-02T00:56:56.786Z,20.20
2022-08-02T00:59:43.381Z,20.23
2022-08-02T01:02:29.959Z,20.19
2022-08-02T01:05:16.533Z,20.12
2022-08-02T01:08:04.341Z,20.12
2022-08-02T01:10:50.905Z,20.07
2022-08-02T01:13:37.618Z,20.01
2022-08-02T01:16:14.885Z,20.12
2022-08-02T01:18:47.713Z,20.12
2022-08-02T01:21:20.138Z,20.04
2022-08-02T01:24:05.534Z,19.98
2022-08-02T01:26:42.353Z,20.02
2022-08-02T01:29:16.903Z,20.00
2022-08-02T01:31:48.723Z,20.02
2022-08-02T01:34:24.387Z,20.09
2022-08-02T01:37:21.806Z,20.07
2022-08-02T01:39:55.685Z,20.19
2022-08-02T01:42:25.341Z,20.18
2022-08-02T01:44:53.808Z,20.11
2022-08-02T01:47:26.380Z,20.10
2022-08-02T01:49:56.247Z,20.02
2022-08-02T01:52:26.218Z,19.96
2022-08-02T01:55:01.091Z,19.99
2022-08-02T01:57:41.982Z,20.00
2022-08-02T02:00:10.620Z,19.99
2022-08-02T02:02:41.596Z,19.96
2022-08-02T02:05:13.192Z,19.91
2022-08-02T02:07:42.273Z,19.78
2022-08-02T02:10:11.899Z,19.88
2022-08-02T02:12:40.125Z,19.84
2022-08-02T02:15:11.261Z,19.88
2022-08-02T02:17:50.528Z,19.86
2022-08-02T02:20:28.903Z,19.93
2022-08-02T02:22:55.759Z,19.85
2022-08-02T02:25:24.336Z,19.76
2022-08-02T02:28:06.947Z,19.72
2022-08-02T02:30:34.577Z,19.66
2022-08-02T02:33:03.241Z,19.65
2022-08-02T02:35:33.664Z,19.66
2022-08-02T02:38:01.920Z,19.49
2022-08-02T02:40:29.198Z,19.52
2022-08-02T02:42:58.068Z,19.44
2022-08-02T02:45:25.940Z,19.53
2022-08-02T02:47:55.078Z,19.36
2022-08-02T02:50:22.827Z,19.45
2022-08-02T02:52:50.652Z,19.48
2022-08-02T02:55:17.934Z,19.44
2022-08-02T02:57:45.556Z,19.47
2022-08-02T03:00:13.728Z,19.46
2022-08-02T03:02:42.513Z,19.43
2022-08-02T03:05:10.623Z,19.42
2022-08-02T03:07:37.219Z,19.35
2022-08-02T03:10:06.461Z,19.27
2022-08-02T03:12:34.820Z,19.36
2022-08-02T03:15:07.676Z,19.35
2022-08-02T03:17:52.597Z,19.36
2022-08-02T03:20:20.432Z,19.34
2022-08-02T03:22:47.805Z,19.38
2022-08-02T03:25:15.932Z,19.30
2022-08-02T03:27:42.972Z,19.34
2022-08-02T03:30:11.793Z,19.31
2022-08-02T03:32:40.587Z,19.30
2022-08-02T03:35:10.658Z,19.32
2022-08-02T03:37:37.675Z,19.30
2022-08-02T03:40:08.117Z,19.28
2022-08-02T03:42:34.737Z,19.24
2022-08-02T03:45:08.213Z,19.26
2022-08-02T03:47:37.552Z,19.18
2022-08-02T03:50:04.885Z,19.11
2022-08-02T03:52:33.356Z,19.15
2022-08-02T03:54:59.955Z,19.13
2022-08-02T03:57:26.853Z,19.09
2022-08-02T03:59:53.310Z,19.02
2022-08-02T04:02:20.035Z,19.01
2022-08-02T04:04:46.495Z,18.99
2022-08-02T04:07:13.232Z,18.95
2022-08-02T04:09:39.823Z,18.96
2022-08-02T04:12:06.552Z,18.89
2022-08-02T04:14:35.586Z,18.84
2022-08-02T04:17:07.300Z,18.82
2022-08-02T04:19:50.012Z,18.87
2022-08-02T04:22:21.271Z,18.85
2022-08-02T04:24:51.859Z,18.77
2022-08-02T04:27:50.666Z,18.74
2022-08-02T04:30:08.266Z,18.75
2022-08-02T04:32:35.573Z,18.71
2022-08-02T04:38:09.293Z,18.73
2022-08-02T04:40:36.442Z,18.79
2022-08-02T04:43:03.021Z,18.86
2022-08-02T04:45:30.614Z,18.82
2022-08-02T04:48:05.648Z,18.85
2022-08-02T04:50:33.520Z,18.89
2022-08-02T04:53:00.031Z,18.86
2022-08-02T04:55:28.685Z,18.85
2022-08-02T04:57:57.281Z,18.87
2022-08-02T05:00:27.497Z,18.87
2022-08-02T05:02:56.344Z,18.90
2022-08-02T05:05:23.228Z,18.87
2022-08-02T05:07:49.808Z,18.96
2022-08-02T05:10:16.246Z,18.93
2022-08-02T05:12:42.799Z,18.98
2022-08-02T05:15:12.600Z,19.16
2022-08-02T05:17:40.678Z,19.21
2022-08-02T05:20:15.964Z,19.27
2022-08-02T05:22:42.712Z,19.31
2022-08-02T05:25:10.100Z,19.32
2022-08-02T05:27:36.757Z,19.35
2022-08-02T05:30:04.624Z,19.30
2022-08-02T05:32:31.161Z,19.36
2022-08-02T05:34:57.832Z,19.36
2022-08-02T05:37:24.374Z,19.49
2022-08-02T05:39:55.497Z,19.53
2022-08-02T05:42:23.551Z,19.48
2022-08-02T05:44:50.278Z,19.52
2022-08-02T05:47:16.987Z,19.57
2022-08-02T05:49:43.487Z,19.56
2022-08-02T05:52:15.952Z,19.45
2022-08-02T05:55:15.014Z,19.63
2022-08-02T05:57:50.511Z,19.66
2022-08-02T06:00:17.792Z,19.75
2022-08-02T06:03:16.540Z,19.76
2022-08-02T06:06:12.432Z,19.93
2022-08-02T06:08:48.368Z,19.94
2022-08-02T06:11:17.375Z,20.10
2022-08-02T06:13:45.930Z,20.13
2022-08-02T06:16:14.925Z,20.29
2022-08-02T06:18:43.611Z,20.34
2022-08-02T06:22:35.790Z,20.23
2022-08-02T06:23:59.345Z,20.37
2022-08-02T06:26:29.072Z,20.57
2022-08-02T06:28:58.181Z,20.51
2022-08-02T06:31:25.347Z,20.41
2022-08-02T06:33:52.216Z,20.50
2022-08-02T06:36:49.437Z,20.52
2022-08-02T06:39:25.721Z,20.75
2022-08-02T06:41:54.600Z,20.64
2022-08-02T06:47:13.270Z,20.74
2022-08-02T06:49:52.541Z,20.80
2022-08-02T06:52:33.159Z,21.03
2022-08-02T06:55:01.636Z,21.08
2022-08-02T06:57:29.349Z,21.14
2022-08-02T06:59:56.392Z,21.30
2022-08-02T07:02:23.247Z,21.34
2022-08-02T07:04:49.885Z,21.36
2022-08-02T07:07:16.481Z,21.34
2022-08-02T07:09:56.311Z,21.45
2022-08-02T07:12:29.068Z,21.66
2022-08-02T07:14:55.648Z,21.65
2022-08-02T07:17:22.359Z,21.60
2022-08-02T07:19:48.898Z,21.68
2022-08-02T07:22:15.847Z,21.81
2022-08-02T07:24:42.539Z,22.03
2022-08-02T07:27:11.724Z,21.99
2022-08-02T07:29:44.971Z,22.13
2022-08-02T07:32:21.224Z,22.36
2022-08-02T07:34:52.601Z,22.60
2022-08-02T07:37:53.551Z,22.49
2022-08-02T07:40:13.799Z,22.61
2022-08-02T07:42:43.493Z,22.56
2022-08-02T07:45:11.928Z,22.57
2022-08-02T07:47:39.837Z,22.78
2022-08-02T07:50:07.890Z,22.94
2022-08-02T07:52:34.660Z,23.01
2022-08-02T07:55:01.244Z,22.88
2022-08-02T07:57:27.676Z,23.21
2022-08-02T07:59:54.133Z,23.53
2022-08-02T08:02:20.627Z,23.73
2022-08-02T08:04:47.107Z,23.99
2022-08-02T08:07:13.575Z,23.92
2022-08-02T08:09:42.070Z,24.08
2022-08-02T08:12:10.163Z,24.24
2022-08-02T08:14:38.803Z,24.47
2022-08-02T08:17:06.406Z,24.45
2022-08-02T08:19:36.497Z,24.59
2022-08-02T08:22:21.713Z,24.68
2022-08-02T08:24:48.922Z,24.70
2022-08-02T08:27:16.278Z,24.82
2022-08-02T08:29:43.461Z,25.22
2022-08-02T08:32:15.792Z,25.47
2022-08-02T08:34:43.043Z,25.46
2022-08-02T08:37:09.558Z,25.82
2022-08-02T08:39:57.803Z,25.84
2022-08-02T08:42:30.396Z,25.90
2022-08-02T08:44:58.691Z,26.09
2022-08-02T08:47:34.812Z,26.16
2022-08-02T08:50:04.960Z,26.37
2022-08-02T08:52:35.293Z,26.43
2022-08-02T08:55:03.507Z,26.53
2022-08-02T08:57:30.612Z,26.69
2022-08-02T08:59:57.263Z,26.69
2022-08-02T09:02:28.057Z,26.79
2022-08-02T09:04:55.544Z,27.05
2022-08-02T09:07:23.281Z,26.84
2022-08-02T09:09:49.856Z,27.26
2022-08-02T09:12:19.475Z,27.29
2022-08-02T09:14:46.512Z,27.09
2022-08-02T09:17:17.818Z,27.43
2022-08-02T09:19:45.912Z,27.63
2022-08-02T09:22:15.098Z,28.06
2022-08-02T09:24:44.332Z,28.18
2022-08-02T09:27:16.101Z,28.42
2022-08-02T09:30:12.283Z,28.46
2022-08-02T09:32:48.249Z,27.82
2022-08-02T09:36:06.503Z,28.08
2022-08-02T09:38:18.514Z,28.42
2022-08-02T09:40:45.228Z,28.95
2022-08-02T09:43:11.811Z,28.48
2022-08-02T09:45:38.506Z,28.29
2022-08-02T09:48:09.195Z,28.86
2022-08-02T09:50:41.058Z,28.79
2022-08-02T09:53:14.244Z,28.39
2022-08-02T09:55:42.175Z,28.62
2022-08-02T09:58:22.124Z,29.77
2022-08-02T10:00:56.010Z,29.26
2022-08-02T10:03:23.031Z,29.25
2022-08-02T10:06:02.252Z,29.39
2022-08-02T10:08:32.870Z,28.37
2022-08-02T10:11:00.787Z,29.04
2022-08-02T10:13:34.354Z,28.72
2022-08-02T10:16:02.662Z,29.32
2022-08-02T10:18:38.822Z,29.78
2022-08-02T10:21:22.319Z,29.99
2022-08-02T10:23:50.137Z,30.48
2022-08-02T10:26:20.688Z,29.99
2022-08-02T10:28:49.437Z,30.17
2022-08-02T10:31:28.273Z,30.83
2022-08-02T10:33:58.552Z,30.96
2022-08-02T10:36:27.274Z,31.13
2022-08-02T10:38:55.432Z,31.08
2022-08-02T10:41:40.887Z,31.26
2022-08-02T10:44:07.866Z,30.49
2022-08-02T10:46:51.182Z,30.85
2022-08-02T10:49:39.746Z,31.12
2022-08-02T10:52:08.781Z,31.76
2022-08-02T10:54:41.663Z,31.13
2022-08-02T10:57:35.392Z,30.93
2022-08-02T11:00:34.628Z,30.89
2022-08-02T11:03:01.452Z,31.70
2022-08-02T11:05:43.284Z,31.32
2022-08-02T11:08:21.663Z,32.00
2022-08-02T11:10:48.219Z,32.15
2022-08-02T11:13:19.692Z,31.95
2022-08-02T11:16:10.778Z,32.00
2022-08-02T11:18:44.319Z,32.39
2022-08-02T11:21:22.120Z,32.47
2022-08-02T11:23:49.618Z,32.70
2022-08-02T11:26:31.277Z,33.15
2022-08-02T11:29:05.282Z,32.42
2022-08-02T11:31:44.073Z,32.75
2022-08-02T11:34:36.441Z,33.05
2022-08-02T11:36:58.911Z,33.31
2022-08-02T11:39:25.438Z,34.45
2022-08-02T11:41:55.073Z,33.55
2022-08-02T11:44:25.499Z,33.02
2022-08-02T11:47:00.703Z,33.87
2022-08-02T11:49:29.040Z,33.59
2022-08-02T11:52:05.330Z,34.47
2022-08-02T11:54:35.267Z,34.29
2022-08-02T11:57:20.324Z,34.67
2022-08-02T11:59:50.173Z,34.02
2022-08-02T12:02:17.838Z,33.42
2022-08-02T12:04:53.322Z,34.47
2022-08-02T12:07:35.015Z,35.02
2022-08-02T12:10:11.392Z,34.88
2022-08-02T12:12:54.478Z,35.48
2022-08-02T12:15:41.490Z,35.62
2022-08-02T12:18:32.058Z,36.14
2022-08-02T12:20:59.083Z,35.73
2022-08-02T12:23:26.343Z,35.97
2022-08-02T12:26:06.365Z,33.63
2022-08-02T12:28:39.095Z,34.57
2022-08-02T12:31:07.599Z,35.89
2022-08-02T12:33:50.174Z,35.52
2022-08-02T12:36:21.875Z,35.25
2022-08-02T12:38:55.473Z,36.15
2022-08-02T12:41:30.325Z,36.92
2022-08-02T12:43:59.778Z,37.12
2022-08-02T12:46:26.761Z,35.71
2022-08-02T12:49:16.508Z,35.66
2022-08-02T12:51:55.615Z,36.46
2022-08-02T12:54:38.282Z,37.35
2022-08-02T12:57:12.963Z,36.47
2022-08-02T12:59:42.238Z,36.89
2022-08-02T13:02:11.581Z,36.86
2022-08-02T13:04:39.120Z,37.01
2022-08-02T13:07:06.536Z,37.86
2022-08-02T13:09:38.621Z,38.08
2022-08-02T13:12:06.826Z,36.78
2022-08-02T13:14:39.630Z,36.79
2022-08-02T13:17:10.039Z,37.57
2022-08-02T13:19:38.147Z,37.44
2022-08-02T13:22:05.315Z,37.62
2022-08-02T13:24:41.080Z,36.42
2022-08-02T13:27:20.879Z,36.60
2022-08-02T13:29:48.898Z,36.23
2022-08-02T13:32:16.474Z,36.76
2022-08-02T13:34:43.462Z,38.07
2022-08-02T13:37:10.305Z,38.12
2022-08-02T13:39:39.942Z,37.54
2022-08-02T13:42:07.005Z,38.03
2022-08-02T13:44:34.509Z,39.07
2022-08-02T13:47:02.213Z,37.97
2022-08-02T13:49:49.722Z,38.92
2022-08-02T13:52:16.252Z,39.80
2022-08-02T13:54:43.192Z,39.26
2022-08-02T13:57:09.836Z,39.23
2022-08-02T13:59:58.017Z,39.53
2022-08-02T14:02:23.209Z,39.72
2022-08-02T14:04:49.915Z,39.89
2022-08-02T14:07:16.466Z,39.88
2022-08-02T14:09:43.572Z,40.19
2022-08-02T14:12:11.105Z,40.42
2022-08-02T14:14:37.895Z,39.84
2022-08-02T14:17:04.417Z,40.03
2022-08-02T14:19:31.215Z,39.90
2022-08-02T14:22:11.449Z,38.85
2022-08-02T14:24:41.338Z,39.99
2022-08-02T14:27:08.155Z,40.35
2022-08-02T14:29:34.770Z,39.12
2022-08-02T14:32:01.684Z,40.85
2022-08-02T14:34:29.151Z,40.44
2022-08-02T14:36:56.273Z,40.04
2022-08-02T14:39:23.002Z,40.14
2022-08-02T14:41:59.987Z,40.96
2022-08-02T14:44:30.371Z,41.69
2022-08-02T14:46:57.366Z,41.52
2022-08-02T14:49:25.987Z,38.14
2022-08-02T14:51:53.737Z,40.33
2022-08-02T14:54:28.129Z,40.65
2022-08-02T14:57:01.787Z,40.92
2022-08-02T14:59:29.510Z,38.78
2022-08-02T15:01:56.072Z,39.18
2022-08-02T15:04:22.819Z,39.74
2022-08-02T15:06:49.343Z,40.57
2022-08-02T15:09:16.034Z,40.50
2022-08-02T15:11:48.105Z,40.39
2022-08-02T15:14:21.748Z,40.42
2022-08-02T15:16:58.400Z,41.08
2022-08-02T15:19:44.935Z,40.01
2022-08-02T15:22:16.845Z,40.99
2022-08-02T15:24:46.900Z,40.89
2022-08-02T15:27:14.785Z,40.91
2022-08-02T15:29:43.607Z,40.97
2022-08-02T15:32:11.216Z,40.72
2022-08-02T15:34:38.423Z,40.16
2022-08-02T15:37:04.983Z,40.79
2022-08-02T15:39:31.669Z,40.40
2022-08-02T15:41:58.288Z,40.15
2022-08-02T15:44:24.993Z,39.69
2022-08-02T15:46:51.785Z,40.14
2022-08-02T15:49:20.286Z,39.83
2022-08-02T15:51:46.889Z,39.21
2022-08-02T15:54:13.313Z,38.91
2022-08-02T15:56:39.818Z,38.91
2022-08-02T15:59:06.287Z,39.56
2022-08-02T16:01:37.832Z,38.91
2022-08-02T16:04:06.733Z,38.82
2022-08-02T16:06:34.291Z,38.82
2022-08-02T16:09:01.278Z,38.42
2022-08-02T16:11:28.140Z,38.23
2022-08-02T16:13:55.052Z,38.05
2022-08-02T16:16:23.442Z,38.13
2022-08-02T16:18:50.084Z,36.93
2022-08-02T16:21:16.646Z,36.73
2022-08-02T16:24:01.600Z,37.14
2022-08-02T16:26:31.401Z,37.17
2022-08-02T16:28:59.380Z,37.60
2022-08-02T16:31:26.097Z,37.64
2022-08-02T16:33:56.610Z,37.02
2022-08-02T16:36:24.398Z,37.03
2022-08-02T16:38:50.876Z,36.76
2022-08-02T16:41:17.344Z,36.46
2022-08-02T16:43:43.844Z,36.40
2022-08-02T16:46:10.374Z,35.54
2022-08-02T16:48:37.220Z,35.85
2022-08-02T16:51:04.577Z,35.94
2022-08-02T16:53:37.237Z,36.25
2022-08-02T16:56:05.476Z,36.01
2022-08-02T16:58:31.925Z,36.12
2022-08-02T17:00:58.484Z,36.07
2022-08-02T17:03:24.991Z,36.16
2022-08-02T17:06:11.495Z,36.48
2022-08-02T17:08:54.138Z,36.76
2022-08-02T17:11:21.616Z,36.80
2022-08-02T17:13:50.811Z,36.77
2022-08-02T17:16:20.524Z,36.51
2022-08-02T17:18:53.018Z,36.27
2022-08-02T17:21:19.819Z,35.96
2022-08-02T17:24:06.073Z,36.05
2022-08-02T17:26:32.992Z,35.93
2022-08-02T17:29:17.758Z,34.81
2022-08-02T17:32:04.768Z,35.01
2022-08-02T17:34:33.468Z,35.17
2022-08-02T17:37:00.199Z,35.09
2022-08-02T17:39:33.796Z,35.22
2022-08-02T17:42:01.646Z,35.07
2022-08-02T17:44:36.573Z,34.79
2022-08-02T17:47:06.506Z,34.60
2022-08-02T17:49:33.202Z,34.32
2022-08-02T17:52:49.148Z,34.05
2022-08-02T17:54:46.315Z,33.86
2022-08-02T17:57:12.903Z,33.72
2022-08-02T17:59:41.989Z,33.62
2022-08-02T18:02:11.486Z,33.45
2022-08-02T18:04:38.253Z,33.29
2022-08-02T18:07:09.419Z,33.20
2022-08-02T18:09:45.069Z,33.12
2022-08-02T18:12:14.486Z,33.05
2022-08-02T18:14:46.047Z,32.84
2022-08-02T18:17:16.892Z,32.77
2022-08-02T18:19:55.460Z,32.71
2022-08-02T18:22:26.942Z,32.50
2022-08-02T18:24:53.910Z,32.35
2022-08-02T18:27:20.568Z,32.07
2022-08-02T18:29:47.344Z,31.94
2022-08-02T18:32:14.117Z,31.67
2022-08-02T18:34:40.819Z,31.64
2022-08-02T18:37:14.149Z,31.55
2022-08-02T18:39:51.169Z,31.29
2022-08-02T18:42:18.504Z,31.21
2022-08-02T18:44:45.072Z,31.07
2022-08-02T18:47:11.584Z,30.81
2022-08-02T18:49:46.151Z,30.61
2022-08-02T18:52:14.932Z,30.45
2022-08-02T18:54:41.966Z,30.44
2022-08-02T18:59:56.663Z,30.07
2022-08-02T19:02:31.789Z,29.97
2022-08-02T19:04:59.938Z,29.75
2022-08-02T19:07:51.423Z,29.60
2022-08-02T19:10:13.480Z,29.36
2022-08-02T19:12:40.257Z,29.33
2022-08-02T19:15:08.183Z,29.23
2022-08-02T19:17:55.598Z,29.21
2022-08-02T19:20:21.157Z,29.02
2022-08-02T19:22:49.984Z,28.92
2022-08-02T19:25:20.922Z,28.63
2022-08-02T19:27:54.958Z,28.45
2022-08-02T19:30:25.824Z,28.29
2022-08-02T19:32:59.448Z,28.17
2022-08-02T19:35:29.757Z,27.96
2022-08-02T19:38:07.265Z,28.06
2022-08-02T19:40:33.794Z,27.82
2022-08-02T19:44:24.050Z,27.69
2022-08-02T19:45:50.527Z,27.57
2022-08-02T19:48:23.423Z,27.28
2022-08-02T19:50:53.514Z,27.14
2022-08-02T19:53:22.725Z,26.99
2022-08-02T19:56:01.546Z,27.05
2022-08-02T19:58:30.461Z,26.77
2022-08-02T20:00:58.030Z,26.84
2022-08-02T20:03:39.906Z,26.64
2022-08-02T20:06:12.340Z,26.47
2022-08-02T20:08:39.489Z,26.57
2022-08-02T20:11:06.902Z,26.31
2022-08-02T20:13:47.165Z,26.32
2022-08-02T20:16:27.526Z,26.37
2022-08-02T20:19:05.619Z,26.14
2022-08-02T20:21:36.982Z,26.15
2022-08-02T20:24:05.636Z,25.98
2022-08-02T20:26:35.365Z,25.48
2022-08-02T20:29:03.652Z,25.57
2022-08-02T20:31:30.595Z,25.60
2022-08-02T20:33:57.446Z,25.73
2022-08-02T20:36:25.484Z,25.64
2022-08-02T20:38:52.425Z,25.71
2022-08-02T20:41:22.139Z,25.49
2022-08-02T20:43:49.310Z,25.17
2022-08-02T20:46:16.213Z,25.12
2022-08-02T20:48:44.138Z,25.38
2022-08-02T20:51:12.375Z,25.33
2022-08-02T20:53:55.097Z,25.33
2022-08-02T20:56:23.402Z,25.29
2022-08-02T20:58:52.095Z,25.20
2022-08-02T21:01:21.118Z,25.09
2022-08-02T21:03:58.761Z,24.94
2022-08-02T21:06:29.762Z,24.91
2022-08-02T21:08:56.811Z,24.61
2022-08-02T21:11:33.473Z,24.67
2022-08-02T21:14:07.877Z,24.47
2022-08-02T21:16:36.801Z,24.52
2022-08-02T21:19:08.103Z,24.46
2022-08-02T21:21:36.892Z,24.48
2022-08-02T21:24:04.032Z,24.27
2022-08-02T21:26:32.419Z,24.17
2022-08-02T21:29:03.989Z,24.18
2022-08-02T21:31:35.887Z,24.22
2022-08-02T21:34:19.221Z,24.21
2022-08-02T21:36:49.670Z,24.18
2022-08-02T21:39:17.090Z,24.19
2022-08-02T21:41:46.537Z,23.79
2022-08-02T21:44:18.723Z,23.71
2022-08-02T21:46:49.388Z,23.78
2022-08-02T21:49:17.812Z,23.47
2022-08-02T21:54:31.639Z,23.25
2022-08-02T21:57:00.565Z,23.66
2022-08-02T21:59:27.006Z,23.59
2022-08-02T22:01:56.924Z,23.33
2022-08-02T22:04:24.405Z,23.26
2022-08-02T22:06:50.986Z,23.08
2022-08-02T22:09:44.107Z,23.06
2022-08-02T22:12:09.774Z,23.28
2022-08-02T22:14:39.447Z,23.12
2022-08-02T22:17:09.108Z,22.94
2022-08-02T22:19:40.073Z,23.22
2022-08-02T22:22:20.336Z,23.15
2022-08-02T22:24:46.802Z,23.17
2022-08-02T22:27:14.100Z,23.10
2022-08-02T22:29:40.626Z,23.06
2022-08-02T22:32:07.315Z,23.05
2022-08-02T22:34:51.256Z,23.05
2022-08-02T22:38:15.235Z,22.97
2022-08-02T22:40:08.609Z,22.80
2022-08-02T22:42:53.933Z,22.78
2022-08-02T22:45:22.223Z,22.78
2022-08-02T22:47:50.814Z,22.66
2022-08-02T22:50:19.084Z,22.65
2022-08-02T22:52:46.802Z,22.47
2022-08-02T22:55:17.777Z,22.62
2022-08-02T22:57:56.296Z,22.50
2022-08-02T22:58:46.368Z,30.34
2022-08-02T22:59:03.619Z,23.47
2022-08-02T23:00:25.106Z,22.62
2022-08-02T23:02:51.738Z,22.51
2022-08-02T23:05:18.452Z,22.46
2022-08-02T23:07:45.186Z,22.50
2022-08-02T23:10:11.698Z,22.45
2022-08-02T23:12:38.256Z,22.37
2022-08-02T23:15:05.174Z,22.17
2022-08-02T23:17:50.086Z,22.32
2022-08-02T23:20:20.116Z,22.24
2022-08-02T23:22:46.586Z,22.31
2022-08-02T23:25:14.510Z,22.38
2022-08-02T23:27:49.663Z,22.13
2022-08-02T23:30:17.213Z,21.93
2022-08-02T23:32:43.756Z,21.97
2022-08-02T23:35:10.575Z,21.89
2022-08-02T23:37:59.786Z,21.78
2022-08-02T23:40:38.818Z,21.92
2022-08-02T23:43:14.686Z,21.81
2022-08-02T23:45:48.413Z,21.95
2022-08-02T23:48:15.049Z,21.68
2022-08-02T23:50:41.519Z,21.59
2022-08-02T23:53:08.014Z,21.73
2022-08-02T23:55:34.669Z,21.73
2022-08-02T23:58:01.116Z,21.69
